Time;durP1;ratioP1;P1;durP2;ratioP2;P2;SDS_P1;SDS_P2;PMS_P1;PMS_P2;Temp;Humidity;BMP_temperature;BMP_pressure;BME280_temperature;BME280_humidity;BME280_pressure;Samples;Min_cycle;Max_cycle;Signal;HPM_P1;HPM_P2
2022/05/21 00:01:31;;;;;;;7.20;5.72;;;14.80;78.90;;;;;;2373572;56;21086;-74
2022/05/21 00:03:58;;;;;;;9.75;5.28;;;14.80;78.80;;;;;;2373936;56;21106;-74
2022/05/21 00:06:25;;;;;;;14.60;5.68;;;14.80;78.50;;;;;;2373368;56;21047;-74
2022/05/21 00:08:53;;;;;;;9.93;5.32;;;14.80;78.10;;;;;;2372562;56;21023;-74
2022/05/21 00:11:20;;;;;;;8.43;5.20;;;14.70;77.70;;;;;;2375136;56;22616;-74
2022/05/21 00:13:48;;;;;;;12.02;5.57;;;14.70;78.50;;;;;;2372876;56;21047;-74
2022/05/21 00:16:16;;;;;;;11.25;5.87;;;14.60;77.80;;;;;;2374688;56;21122;-74
2022/05/21 00:18:43;;;;;;;10.23;4.57;;;14.50;78.00;;;;;;2374093;56;21059;-74
2022/05/21 00:21:12;;;;;;;11.80;4.85;;;14.60;78.20;;;;;;2373901;56;21106;-75
2022/05/21 00:23:41;;;;;;;9.38;4.82;;;14.60;78.00;;;;;;2372985;56;21035;-74
2022/05/21 00:26:14;;;;;;;12.00;4.40;;;14.60;77.90;;;;;;2373747;56;21114;-74
2022/05/21 00:28:45;;;;;;;7.68;3.62;;;14.60;78.10;;;;;;2374683;56;21047;-74
2022/05/21 00:31:14;;;;;;;7.55;3.55;;;14.60;77.70;;;;;;2374783;56;21034;-74
2022/05/21 00:33:43;;;;;;;9.70;3.85;;;14.60;77.20;;;;;;2372980;56;21082;-74
2022/05/21 00:36:11;;;;;;;7.47;3.87;;;14.50;76.90;;;;;;2373991;56;21050;-74
2022/05/21 00:38:39;;;;;;;6.00;2.95;;;14.40;76.40;;;;;;2373475;56;21086;-74
2022/05/21 00:41:09;;;;;;;11.15;3.90;;;14.40;76.60;;;;;;2374903;56;21062;-74
2022/05/21 00:43:40;;;;;;;8.95;3.50;;;14.30;76.70;;;;;;2374248;56;21071;-74
2022/05/21 00:48:54;;;;;;;7.15;3.20;;;14.30;76.90;;;;;;2575750;53;22677;-74
2022/05/21 00:51:26;;;;;;;5.65;3.42;;;14.30;76.30;;;;;;2346548;57;21097;-74
2022/05/21 00:53:55;;;;;;;7.35;3.60;;;14.40;76.30;;;;;;2346194;57;21125;-74
2022/05/21 00:56:25;;;;;;;15.15;4.43;;;14.40;75.90;;;;;;2346405;57;21034;-74
2022/05/21 01:01:43;;;;;;;6.03;3.30;;;14.20;75.70;;;;;;2347510;57;21622;-74
2022/05/21 01:04:11;;;;;;;7.75;3.35;;;14.20;75.70;;;;;;2594228;53;21118;-74
2022/05/21 01:06:39;;;;;;;8.00;3.92;;;14.10;76.30;;;;;;2347258;57;21045;-74
2022/05/21 01:09:06;;;;;;;6.50;3.80;;;14.10;75.70;;;;;;2346843;57;21097;-74
2022/05/21 01:11:36;;;;;;;9.90;3.80;;;14.00;75.60;;;;;;2346612;57;21177;-74
2022/05/21 01:14:03;;;;;;;7.35;3.75;;;14.00;76.00;;;;;;2345594;57;21116;-74
2022/05/21 01:16:32;;;;;;;9.18;3.45;;;13.90;76.10;;;;;;2347146;57;21102;-74
2022/05/21 01:19:04;;;;;;;9.32;4.70;;;13.90;76.30;;;;;;2346862;57;21045;-74
2022/05/21 01:21:31;;;;;;;8.25;4.45;;;13.90;76.20;;;;;;2347728;57;21101;-74
2022/05/21 01:23:58;;;;;;;9.20;4.00;;;13.90;76.60;;;;;;2345795;57;21140;-74
2022/05/21 01:26:26;;;;;;;7.55;4.43;;;13.90;76.50;;;;;;2344886;57;21599;-74
2022/05/21 01:28:54;;;;;;;9.90;4.72;;;13.80;76.70;;;;;;2347177;57;21089;-74
2022/05/21 01:31:22;;;;;;;12.30;4.82;;;13.80;76.60;;;;;;2346626;57;21042;-74
2022/05/21 01:33:49;;;;;;;14.25;6.00;;;13.80;76.60;;;;;;2346499;57;21042;-74
2022/05/21 01:36:17;;;;;;;9.90;4.97;;;13.80;76.90;;;;;;2347296;57;21187;-74
2022/05/21 01:38:46;;;;;;;9.93;5.10;;;13.80;76.70;;;;;;2347326;57;21354;-74
2022/05/21 01:41:14;;;;;;;9.70;5.28;;;13.80;76.80;;;;;;2344646;57;21048;-74
2022/05/21 01:46:26;;;;;;;9.75;5.82;;;13.70;76.70;;;;;;2346290;57;20977;-74
2022/05/21 01:48:54;;;;;;;13.52;5.40;;;13.70;76.80;;;;;;2345961;57;21057;-74
2022/05/21 01:51:21;;;;;;;9.68;5.47;;;13.60;77.00;;;;;;2347465;57;21128;-74
2022/05/21 01:53:49;;;;;;;9.52;5.45;;;13.60;77.20;;;;;;2346487;57;21651;-74
2022/05/21 01:56:16;;;;;;;10.25;5.35;;;13.60;77.20;;;;;;2346941;57;21046;-74
2022/05/21 01:58:44;;;;;;;10.07;5.65;;;13.60;77.20;;;;;;2346364;57;21346;-75
2022/05/21 02:01:12;;;;;;;9.07;4.43;;;13.60;77.20;;;;;;2590169;53;21037;-74
2022/05/21 02:03:40;;;;;;;9.88;5.05;;;13.60;77.20;;;;;;2345607;57;21053;-74
2022/05/21 02:06:08;;;;;;;11.02;5.37;;;13.60;77.30;;;;;;2346328;57;21113;-74
2022/05/21 02:08:36;;;;;;;8.55;4.60;;;13.60;77.30;;;;;;2345838;57;21121;-74
2022/05/21 02:11:03;;;;;;;11.88;5.00;;;13.60;77.20;;;;;;2346805;57;21045;-74
2022/05/21 02:13:32;;;;;;;10.00;4.37;;;13.60;77.10;;;;;;2345410;57;21058;-74
2022/05/21 02:16:00;;;;;;;12.00;5.05;;;13.70;77.00;;;;;;2345225;57;21042;-74
2022/05/21 02:18:27;;;;;;;9.07;4.78;;;13.70;76.50;;;;;;2343750;57;21117;-74
2022/05/21 02:20:55;;;;;;;9.27;4.87;;;13.70;76.80;;;;;;2345006;57;21114;-74
2022/05/21 02:23:22;;;;;;;8.75;4.47;;;13.70;76.70;;;;;;2346629;57;21120;-74
2022/05/21 02:25:50;;;;;;;10.82;4.72;;;13.80;76.50;;;;;;2345516;57;21544;-74
2022/05/21 02:28:17;;;;;;;9.57;4.62;;;13.80;76.70;;;;;;2345809;57;21093;-74
2022/05/21 02:30:45;;;;;;;9.38;4.93;;;13.80;76.70;;;;;;2344678;57;21129;-74
2022/05/21 02:33:13;;;;;;;6.25;3.95;;;13.80;76.90;;;;;;2344806;57;21038;-74
2022/05/21 02:35:41;;;;;;;7.82;4.10;;;13.80;76.70;;;;;;2345463;57;21045;-74
2022/05/21 02:40:54;;;;;;;7.45;3.72;;;13.90;76.90;;;;;;2345330;57;20997;-74
2022/05/21 02:43:22;;;;;;;12.52;4.22;;;14.00;76.50;;;;;;2592650;53;21078;-74
2022/05/21 02:45:49;;;;;;;6.80;3.62;;;14.00;76.50;;;;;;2345428;57;21057;-74
2022/05/21 02:48:17;;;;;;;10.45;3.47;;;14.00;76.50;;;;;;2345130;57;21073;-74
2022/05/21 02:50:44;;;;;;;8.45;3.37;;;14.00;76.60;;;;;;2346037;57;21042;-75
2022/05/21 02:53:17;;;;;;;6.20;3.05;;;14.10;76.70;;;;;;2345590;57;21062;-74
2022/05/21 02:55:44;;;;;;;5.18;2.60;;;14.10;76.30;;;;;;2345929;57;21041;-74
2022/05/21 02:58:12;;;;;;;7.07;3.40;;;14.10;76.30;;;;;;2344244;57;21213;-74
2022/05/21 03:00:39;;;;;;;4.78;2.95;;;14.20;76.10;;;;;;2344659;57;21364;-74
2022/05/21 03:03:06;;;;;;;8.15;3.20;;;14.20;75.80;;;;;;2344963;57;21212;-74
2022/05/21 03:05:35;;;;;;;7.35;3.08;;;14.30;75.80;;;;;;2346136;57;21671;-74
2022/05/21 03:10:20;;;;;;;11.95;3.53;;;14.30;75.50;;;;;;2345832;57;21130;-74
2022/05/21 03:13:04;;;;;;;5.43;3.17;;;14.30;75.40;;;;;;2344832;57;21121;-74
2022/05/21 03:15:33;;;;;;;11.70;3.95;;;14.40;75.00;;;;;;2345128;57;21575;-74
2022/05/21 03:18:02;;;;;;;7.05;3.70;;;14.40;75.30;;;;;;2344442;57;21101;-74
2022/05/21 03:20:29;;;;;;;7.30;3.95;;;14.40;75.50;;;;;;2345944;57;21261;-74
2022/05/21 03:22:56;;;;;;;8.20;4.32;;;14.40;75.30;;;;;;2344473;57;21575;-74
2022/05/21 03:25:23;;;;;;;5.65;3.53;;;14.40;75.20;;;;;;2591555;53;21053;-74
2022/05/21 03:27:51;;;;;;;8.43;5.00;;;14.40;75.50;;;;;;2344297;57;21113;-74
2022/05/21 03:30:22;;;;;;;14.10;3.92;;;14.40;75.50;;;;;;2345068;57;21109;-74
2022/05/21 03:32:49;;;;;;;12.50;4.20;;;14.40;75.80;;;;;;2346430;57;21564;-74
2022/05/21 03:35:18;;;;;;;8.30;4.40;;;14.40;75.40;;;;;;2344432;57;21053;-75
2022/05/21 03:37:46;;;;;;;6.82;4.28;;;14.40;75.50;;;;;;2344730;57;21531;-74
2022/05/21 03:40:16;;;;;;;8.77;4.10;;;14.40;75.60;;;;;;2344580;57;21599;-74
2022/05/21 03:42:43;;;;;;;10.65;4.78;;;14.40;75.50;;;;;;2344590;57;21038;-74
2022/05/21 03:45:12;;;;;;;8.27;4.25;;;14.50;75.20;;;;;;2430908;55;21700;-72
2022/05/21 03:47:41;;;;;;;10.68;4.43;;;14.50;75.00;;;;;;2256911;59;21041;-72
2022/05/21 03:50:10;;;;;;;5.15;3.67;;;14.50;74.80;;;;;;2272144;59;21165;-72
2022/05/21 03:52:38;;;;;;;10.77;4.70;;;14.50;74.90;;;;;;2270714;59;21696;-72
2022/05/21 03:55:08;;;;;;;9.32;4.47;;;14.50;74.90;;;;;;2271886;59;21664;-72
2022/05/21 03:57:35;;;;;;;6.82;4.20;;;14.60;74.90;;;;;;2272068;59;21055;-72
2022/05/21 04:00:05;;;;;;;9.90;4.45;;;14.60;75.00;;;;;;2271986;59;21079;-72
2022/05/21 04:02:34;;;;;;;8.52;4.35;;;14.60;75.00;;;;;;2269791;59;21150;-72
2022/05/21 04:05:03;;;;;;;4.97;3.75;;;14.60;74.60;;;;;;2272461;59;21075;-73
2022/05/21 04:07:30;;;;;;;6.10;3.72;;;14.70;74.80;;;;;;2271605;59;21146;-72
2022/05/21 04:09:57;;;;;;;6.78;4.07;;;14.70;74.60;;;;;;2273708;59;21842;-72
2022/05/21 04:12:24;;;;;;;9.15;3.78;;;14.70;74.50;;;;;;2272159;59;21071;-73
2022/05/21 04:14:52;;;;;;;6.50;3.78;;;14.70;74.40;;;;;;2272866;59;21095;-72
2022/05/21 04:17:19;;;;;;;4.93;3.50;;;14.80;74.10;;;;;;2272909;59;21167;-72
2022/05/21 04:19:46;;;;;;;6.70;3.78;;;14.80;74.30;;;;;;2273053;59;21449;-72
2022/05/21 04:22:13;;;;;;;6.47;3.45;;;14.90;74.00;;;;;;2273566;59;21063;-72
2022/05/21 04:24:41;;;;;;;6.57;3.40;;;14.90;73.70;;;;;;2272791;59;21118;-72
2022/05/21 04:27:08;;;;;;;7.53;3.55;;;14.90;73.40;;;;;;2272180;59;21189;-72
2022/05/21 04:29:36;;;;;;;5.22;2.90;;;15.00;72.90;;;;;;2273051;59;21135;-72
2022/05/21 04:32:06;;;;;;;9.60;3.45;;;15.00;72.90;;;;;;2272226;59;21060;-72
2022/05/21 04:34:33;;;;;;;6.80;3.50;;;14.90;72.50;;;;;;2273885;59;21127;-72
2022/05/21 04:37:00;;;;;;;7.82;3.75;;;15.00;71.90;;;;;;2270715;59;21068;-72
2022/05/21 04:39:27;;;;;;;8.25;3.30;;;15.00;72.40;;;;;;2272901;59;21820;-72
2022/05/21 04:41:55;;;;;;;4.85;3.25;;;15.00;72.20;;;;;;2272184;59;21666;-72
2022/05/21 04:44:23;;;;;;;5.47;3.55;;;15.00;72.10;;;;;;2272892;59;21055;-72
2022/05/21 04:46:51;;;;;;;5.40;3.20;;;15.00;72.30;;;;;;2272047;59;21068;-73
2022/05/21 04:49:18;;;;;;;9.18;4.20;;;15.00;71.80;;;;;;2273235;59;21310;-72
2022/05/21 04:51:45;;;;;;;8.38;5.25;;;15.00;72.20;;;;;;2273263;59;21353;-72
2022/05/21 04:54:12;;;;;;;6.57;4.20;;;15.00;71.90;;;;;;2273307;59;21637;-72
2022/05/21 04:56:40;;;;;;;9.20;4.85;;;15.00;72.50;;;;;;2272464;59;21044;-72
2022/05/21 04:59:08;;;;;;;11.15;5.40;;;15.00;72.00;;;;;;2271350;59;21123;-72
2022/05/21 05:01:35;;;;;;;9.18;5.18;;;15.00;72.10;;;;;;2273005;59;21064;-72
2022/05/21 05:04:02;;;;;;;11.23;5.72;;;15.00;72.60;;;;;;2272603;59;21071;-72
2022/05/21 05:06:30;;;;;;;9.80;6.35;;;15.00;72.20;;;;;;2503635;55;21058;-72
2022/05/21 05:08:57;;;;;;;15.70;7.87;;;15.00;72.20;;;;;;2272462;59;21071;-72
2022/05/21 05:11:25;;;;;;;11.77;6.72;;;15.00;72.70;;;;;;2273375;59;21066;-72
2022/05/21 05:13:52;;;;;;;11.55;7.10;;;15.00;72.50;;;;;;2273310;59;21150;-72
2022/05/21 05:16:20;;;;;;;14.93;7.82;;;15.10;72.20;;;;;;2502588;55;21450;-72
2022/05/21 05:18:47;;;;;;;14.32;9.00;;;15.00;72.40;;;;;;2272529;59;21059;-72
2022/05/21 05:21:14;;;;;;;12.52;7.72;;;15.00;73.30;;;;;;2274014;59;21138;-72
2022/05/21 05:23:41;;;;;;;12.25;7.62;;;15.00;73.10;;;;;;2273212;59;21542;-72
2022/05/21 05:26:08;;;;;;;14.48;8.85;;;15.00;72.70;;;;;;2271435;59;21158;-72
2022/05/21 05:28:36;;;;;;;19.40;10.25;;;15.10;73.40;;;;;;2273667;59;21059;-72
2022/05/21 05:31:03;;;;;;;20.70;10.88;;;15.00;73.30;;;;;;2272927;59;21664;-72
2022/05/21 05:36:08;;;;;;;19.90;12.07;;;15.00;73.50;;;;;;2354787;57;22066;-72
2022/05/21 05:38:36;;;;;;;23.70;13.93;;;15.00;73.80;;;;;;2367898;56;22372;-72
2022/05/21 05:41:06;;;;;;;22.05;13.68;;;15.00;73.10;;;;;;2374970;56;21035;-72
2022/05/21 05:43:33;;;;;;;20.62;13.10;;;15.10;73.20;;;;;;2374242;56;21036;-72
2022/05/21 05:46:00;;;;;;;19.98;13.93;;;15.10;73.00;;;;;;2373260;56;21115;-72
2022/05/21 05:48:28;;;;;;;21.73;15.95;;;15.10;73.40;;;;;;2375038;56;21111;-72
2022/05/21 05:50:56;;;;;;;23.05;15.20;;;15.10;73.40;;;;;;2374683;56;21032;-72
2022/05/21 05:53:24;;;;;;;17.58;12.40;;;15.10;73.90;;;;;;2375282;56;21059;-72
2022/05/21 05:55:51;;;;;;;19.67;13.73;;;15.10;73.90;;;;;;2374385;56;21036;-72
2022/05/21 06:01:06;;;;;;;24.48;14.70;;;15.20;72.90;;;;;;2374579;56;20991;-72
2022/05/21 06:03:34;;;;;;;28.15;16.87;;;15.20;72.80;;;;;;2374779;56;21040;-72
2022/05/21 06:06:02;;;;;;;17.75;14.25;;;15.20;74.00;;;;;;2373706;56;21190;-73
2022/05/21 06:08:29;;;;;;;22.17;14.60;;;15.20;74.50;;;;;;2374947;56;21048;-73
2022/05/21 06:10:56;;;;;;;30.83;16.67;;;15.20;73.70;;;;;;2374404;56;21107;-73
2022/05/21 06:13:24;;;;;;;22.35;14.82;;;15.30;74.30;;;;;;2374846;56;21110;-73
2022/05/21 06:15:51;;;;;;;23.87;12.45;;;15.30;74.40;;;;;;2373544;56;21052;-73
2022/05/21 06:18:20;;;;;;;21.92;14.40;;;15.30;74.40;;;;;;2374703;56;21051;-73
2022/05/21 06:20:49;;;;;;;19.60;13.27;;;15.30;74.50;;;;;;2375223;56;21047;-73
2022/05/21 06:23:16;;;;;;;16.48;11.57;;;15.30;74.70;;;;;;2628451;52;21056;-72
2022/05/21 06:25:44;;;;;;;19.65;13.05;;;15.40;73.70;;;;;;2373819;56;21182;-73
2022/05/21 06:28:11;;;;;;;20.05;13.30;;;15.40;74.10;;;;;;2374890;56;21051;-73
2022/05/21 06:30:40;;;;;;;21.67;13.00;;;15.50;74.40;;;;;;2628800;52;21107;-73
2022/05/21 06:33:18;;;;;;;18.58;11.98;;;15.50;74.30;;;;;;2373181;56;21099;-72
2022/05/21 06:35:46;;;;;;;19.27;12.27;;;15.50;73.50;;;;;;2374231;56;21048;-73
2022/05/21 06:38:14;;;;;;;15.63;11.02;;;15.60;73.70;;;;;;2375231;56;21044;-74
2022/05/21 06:40:41;;;;;;;20.20;13.48;;;15.60;73.70;;;;;;2374935;56;21067;-74
2022/05/21 06:43:09;;;;;;;18.23;14.18;;;15.60;73.60;;;;;;2374840;56;21119;-74
2022/05/21 06:45:36;;;;;;;25.02;16.50;;;15.50;74.00;;;;;;2374563;56;21138;-74
2022/05/21 06:48:06;;;;;;;23.92;15.13;;;15.50;74.40;;;;;;2373755;56;21119;-74
2022/05/21 06:50:33;;;;;;;18.48;13.35;;;15.60;74.30;;;;;;2371582;56;21036;-74
2022/05/21 06:53:01;;;;;;;20.62;13.82;;;15.60;74.20;;;;;;2373566;56;21052;-74
2022/05/21 06:55:28;;;;;;;24.55;17.25;;;15.60;74.50;;;;;;2373227;56;21056;-74
2022/05/21 06:57:55;;;;;;;22.13;14.48;;;15.60;74.90;;;;;;2373617;56;21052;-73
2022/05/21 07:00:23;;;;;;;19.33;11.60;;;15.60;74.70;;;;;;2373903;56;21124;-73
2022/05/21 07:02:52;;;;;;;23.20;15.93;;;15.60;74.20;;;;;;2627621;52;21040;-73
2022/05/21 07:07:56;;;;;;;23.58;13.68;;;15.70;74.90;;;;;;2326815;57;22631;-72
2022/05/21 07:10:26;;;;;;;25.33;15.88;;;15.70;75.50;;;;;;2319733;58;21124;-72
2022/05/21 07:12:53;;;;;;;22.48;14.45;;;15.70;74.80;;;;;;2319835;58;21061;-73
2022/05/21 07:15:21;;;;;;;24.45;13.65;;;15.70;75.20;;;;;;2318816;58;21155;-72
2022/05/21 07:17:49;;;;;;;22.40;14.27;;;15.80;74.10;;;;;;2319077;58;21073;-72
2022/05/21 07:20:19;;;;;;;19.70;13.82;;;15.80;74.90;;;;;;2319678;58;21057;-73
2022/05/21 07:22:48;;;;;;;21.58;13.77;;;15.80;75.40;;;;;;2317179;58;21120;-73
2022/05/21 07:25:18;;;;;;;22.10;15.80;;;15.90;75.90;;;;;;2318979;58;21049;-73
2022/05/21 07:27:46;;;;;;;21.75;14.23;;;15.90;75.00;;;;;;2560616;53;21061;-74
2022/05/21 07:30:14;;;;;;;24.08;15.77;;;15.90;75.60;;;;;;2319041;58;21061;-73
2022/05/21 07:32:42;;;;;;;20.48;12.85;;;15.90;76.30;;;;;;2318867;58;21100;-72
2022/05/21 07:35:13;;;;;;;22.52;14.38;;;16.00;75.90;;;;;;2319477;58;21670;-74
2022/05/21 07:37:40;;;;;;;21.23;14.77;;;16.10;75.40;;;;;;2318521;58;21331;-73
2022/05/21 07:40:10;;;;;;;27.85;13.75;;;16.20;76.20;;;;;;2319078;58;21061;-72
2022/05/21 07:42:38;;;;;;;21.08;14.38;;;16.20;75.60;;;;;;2318873;58;21623;-72
2022/05/21 07:45:08;;;;;;;29.08;16.45;;;16.20;75.50;;;;;;2319299;58;21061;-73
2022/05/21 07:47:35;;;;;;;18.60;12.90;;;16.30;75.70;;;;;;2319295;58;21057;-73
2022/05/21 07:50:04;;;;;;;19.75;13.15;;;16.30;75.40;;;;;;2319793;58;21069;-73
2022/05/21 07:52:32;;;;;;;15.07;11.60;;;16.40;76.20;;;;;;2317970;58;21687;-74
2022/05/21 07:54:59;;;;;;;34.78;11.43;;;16.40;76.30;;;;;;2560662;53;21072;-74
2022/05/21 07:57:26;;;;;;;18.65;9.68;;;16.50;74.90;;;;;;2318330;58;21049;-73
2022/05/21 07:59:54;;;;;;;16.50;10.25;;;16.60;75.10;;;;;;2319595;58;21120;-76
2022/05/21 08:04:56;;;;;;;18.77;12.07;;;16.70;74.60;;;;;;2337355;57;27865;-74
2022/05/21 08:07:24;;;;;;;19.67;9.95;;;16.80;75.20;;;;;;2375335;56;21322;-74
2022/05/21 08:09:51;;;;;;;15.25;9.35;;;16.80;74.10;;;;;;2374946;56;21042;-75
2022/05/21 08:12:18;;;;;;;13.35;9.70;;;16.90;72.90;;;;;;2375981;56;22202;-75
2022/05/21 08:14:45;;;;;;;20.25;9.38;;;17.00;73.00;;;;;;2629174;52;21015;-75
2022/05/21 08:17:13;;;;;;;15.90;8.45;;;16.90;71.50;;;;;;2629254;52;21054;-75
2022/05/21 08:19:41;;;;;;;11.63;6.80;;;17.00;72.60;;;;;;2630062;51;21031;-75
2022/05/21 08:27:40;;;;;;;14.35;7.80;;;17.00;71.80;;;;;;2375188;56;21014;-74
2022/05/21 08:30:09;;;;;;;15.80;7.82;;;17.00;70.60;;;;;;2375621;56;21042;-75
2022/05/21 08:32:37;;;;;;;11.68;6.28;;;17.00;71.20;;;;;;2629089;52;21600;-75
2022/05/21 08:35:05;;;;;;;10.07;5.95;;;17.10;70.90;;;;;;2376025;56;21186;-74
2022/05/21 08:37:35;;;;;;;10.32;5.47;;;17.10;71.00;;;;;;2375566;56;21115;-74
2022/05/21 08:40:02;;;;;;;9.57;5.25;;;17.10;71.60;;;;;;2375531;56;21031;-76
2022/05/21 08:42:33;;;;;;;13.30;5.95;;;17.20;71.10;;;;;;2375935;56;21179;-75
2022/05/21 08:45:11;;;;;;;10.10;4.55;;;17.10;71.40;;;;;;2628971;52;21098;-75
2022/05/21 08:47:39;;;;;;;10.40;4.53;;;17.10;71.50;;;;;;2375975;56;21126;-77
2022/05/21 08:50:10;;;;;;;9.55;3.87;;;17.10;71.80;;;;;;2375538;56;21099;-75
2022/05/21 08:52:43;;;;;;;11.68;3.90;;;17.10;72.30;;;;;;2375300;56;21612;-76
2022/05/21 08:55:16;;;;;;;8.35;4.10;;;17.10;72.70;;;;;;2376144;56;21023;-75
2022/05/21 08:57:46;;;;;;;8.80;3.22;;;17.10;73.00;;;;;;2375589;56;21059;-75
2022/05/21 09:00:19;;;;;;;7.18;3.80;;;17.20;73.10;;;;;;2375723;56;21031;-75
2022/05/21 09:02:47;;;;;;;6.37;3.08;;;17.20;72.30;;;;;;2374693;56;21039;-74
2022/05/21 09:05:16;;;;;;;9.82;2.87;;;17.20;70.50;;;;;;2375286;56;21043;-76
2022/05/21 09:07:57;;;;;;;7.85;3.45;;;17.20;70.50;;;;;;2375934;56;21353;-75
2022/05/21 09:10:50;;;;;;;19.33;3.22;;;17.20;71.00;;;;;;2375545;56;21113;-77
2022/05/21 09:13:25;;;;;;;6.32;2.78;;;17.30;71.30;;;;;;2375233;56;21097;-77
2022/05/21 09:18:38;;;;;;;8.40;2.97;;;17.30;71.30;;;;;;2374350;56;20995;-75
2022/05/21 09:21:10;;;;;;;6.18;2.50;;;17.30;70.90;;;;;;2374444;56;21062;-74
2022/05/21 09:23:49;;;;;;;7.00;2.60;;;17.20;71.70;;;;;;2374017;56;21043;-75
2022/05/21 09:26:18;;;;;;;7.75;2.78;;;17.20;71.80;;;;;;2627451;52;21565;-75
2022/05/21 09:28:48;;;;;;;5.55;2.10;;;17.20;71.30;;;;;;2374751;56;21043;-75
2022/05/21 09:31:23;;;;;;;8.20;2.55;;;17.10;72.00;;;;;;2374543;56;21047;-75
2022/05/21 09:33:51;;;;;;;7.62;2.50;;;16.90;73.00;;;;;;2375097;56;21120;-75
2022/05/21 09:36:31;;;;;;;7.07;2.17;;;16.90;74.10;;;;;;2373653;56;21588;-76
2022/05/21 09:41:36;;;;;;;5.82;2.70;;;16.90;73.40;;;;;;2353186;57;22058;-75
2022/05/21 09:47:13;;;;;;;9.63;2.60;;;16.80;75.00;;;;;;2244544;56;21016;-76
2022/05/21 09:49:42;;;;;;;7.93;2.35;;;16.80;75.70;;;;;;2293489;55;21133;-75
2022/05/21 09:52:23;;;;;;;14.57;2.47;;;16.90;76.00;;;;;;2266077;59;21071;-75
2022/05/21 09:54:51;;;;;;;8.27;2.40;;;16.90;76.20;;;;;;2267142;59;21165;-75
2022/05/21 09:57:33;;;;;;;6.18;2.08;;;16.90;75.40;;;;;;2264633;59;21058;-75
2022/05/21 10:00:05;;;;;;;7.95;2.45;;;16.80;75.40;;;;;;2266573;59;21153;-75
2022/05/21 10:02:41;;;;;;;5.85;2.45;;;16.90;75.20;;;;;;2267111;59;21134;-76
2022/05/21 10:05:12;;;;;;;5.40;2.45;;;16.80;75.00;;;;;;2266110;59;21683;-76
2022/05/21 10:13:26;;;;;;;3.08;1.73;;;16.80;73.40;;;;;;2264920;55;21007;-76
2022/05/21 10:15:58;;;;;;;19.05;2.70;;;16.90;73.90;;;;;;2265844;59;21146;-75
2022/05/21 10:18:32;;;;;;;4.72;1.98;;;16.90;73.80;;;;;;2266638;59;21146;-74
2022/05/21 10:21:07;;;;;;;8.93;2.45;;;16.90;73.00;;;;;;2266679;59;21143;-75
2022/05/21 10:23:40;;;;;;;10.20;2.17;;;16.90;73.40;;;;;;2265399;59;21087;-75
2022/05/21 10:26:31;;;;;;;7.32;1.98;;;16.90;72.70;;;;;;2266903;59;21062;-75
2022/05/21 10:29:13;;;;;;;5.12;1.85;;;17.00;72.00;;;;;;2266480;59;21130;-75
2022/05/21 10:31:49;;;;;;;3.58;1.90;;;17.10;72.00;;;;;;2265902;59;21146;-74
2022/05/21 10:34:38;;;;;;;7.95;1.95;;;17.20;72.10;;;;;;2385352;55;21062;-74
2022/05/21 10:37:18;;;;;;;6.35;2.10;;;17.20;71.80;;;;;;2266580;59;21094;-76
2022/05/21 10:40:09;;;;;;;5.93;2.53;;;17.30;70.20;;;;;;2265736;59;21094;-76
2022/05/21 10:42:52;;;;;;;3.15;1.90;;;17.20;69.90;;;;;;2288339;55;21568;-78
2022/05/21 10:48:36;;;;;;;4.65;1.98;;;17.40;70.60;;;;;;2341307;57;22111;-77
2022/05/21 10:51:09;;;;;;;8.60;2.28;;;17.50;69.90;;;;;;2346334;57;21042;-77
2022/05/21 10:54:00;;;;;;;7.75;2.20;;;17.50;69.00;;;;;;2347388;57;21651;-76
2022/05/21 10:56:53;;;;;;;10.57;2.37;;;17.50;68.00;;;;;;2400605;53;21034;-79
2022/05/21 10:59:38;;;;;;;11.10;2.50;;;17.60;67.70;;;;;;2346511;57;21046;-77
2022/05/21 11:02:37;;;;;;;6.30;2.00;;;17.70;68.20;;;;;;2352657;53;21034;-77
2022/05/21 11:05:42;;;;;;;14.35;2.85;;;17.80;68.30;;;;;;2341470;57;21049;-77
2022/05/21 11:08:11;;;;;;;;;;;17.90;67.60;;;;;;2347309;57;21041;-77
2022/05/21 11:10:43;;;;;;;5.57;1.90;;;18.00;66.20;;;;;;2346353;57;20070;-77
2022/05/21 11:13:16;;;;;;;8.50;2.22;;;18.00;65.10;;;;;;2346699;57;21073;-77
2022/05/21 11:15:46;;;;;;;;;;;18.10;64.50;;;;;;2384124;53;21058;-77
2022/05/21 11:18:21;;;;;;;6.25;2.30;;;18.10;64.00;;;;;;2346156;57;20102;-76
2022/05/21 11:20:55;;;;;;;7.20;2.10;;;18.10;64.00;;;;;;2346353;57;21046;-77
2022/05/21 11:23:30;;;;;;;7.87;1.80;;;18.00;63.00;;;;;;2347301;57;21050;-77
2022/05/21 11:26:03;;;;;;;8.82;1.70;;;18.10;63.50;;;;;;2378542;53;21037;-76
2022/05/21 11:31:18;;;;;;;7.62;1.98;;;18.10;60.70;;;;;;2359442;53;22165;-78
2022/05/21 11:39:23;;;;;;;4.12;1.90;;;18.30;61.40;;;;;;2320307;54;21027;-78
2022/05/21 11:42:00;;;;;;;4.95;1.80;;;18.30;60.10;;;;;;2320556;58;21055;-77
2022/05/21 11:44:58;;;;;;;4.82;1.98;;;18.30;60.60;;;;;;2318328;58;21075;-78
2022/05/21 11:47:49;;;;;;;6.68;1.80;;;18.40;59.60;;;;;;2320089;58;21562;-78
2022/05/21 11:50:19;;;;;;;9.07;1.70;;;18.50;60.10;;;;;;2325216;54;21070;-77
2022/05/21 11:53:31;;;;;;;6.65;1.92;;;18.70;59.20;;;;;;2320039;58;21048;-78
2022/05/21 11:56:03;;;;;;;7.20;1.85;;;18.80;59.10;;;;;;2320625;58;21151;-77
2022/05/21 11:59:07;;;;;;;4.72;1.52;;;18.90;58.20;;;;;;2320678;57;21704;-78
2022/05/21 12:01:58;;;;;;;7.20;1.52;;;18.90;57.80;;;;;;2319557;55;21067;-78
2022/05/21 12:05:04;;;;;;;8.57;1.73;;;18.90;56.40;;;;;;2319955;58;21605;-78
2022/05/21 12:10:55;;;;;;;4.82;1.65;;;18.70;57.50;;;;;;2327306;54;22162;-78
2022/05/21 12:13:48;;;;;;;5.87;1.50;;;18.80;57.60;;;;;;2291557;58;21141;-77
2022/05/21 12:16:45;;;;;;;6.93;1.30;;;18.80;57.40;;;;;;2412259;55;21079;-77
2022/05/21 12:20:04;;;;;;;6.70;1.65;;;18.90;58.00;;;;;;2264951;59;21571;-77
2022/05/21 12:22:44;;;;;;;5.95;1.70;;;18.80;57.70;;;;;;2265096;59;21165;-78
2022/05/21 12:25:32;;;;;;;11.15;1.90;;;18.80;57.30;;;;;;2265400;59;21081;-77
2022/05/21 12:28:04;;;;;;;6.65;1.70;;;18.70;56.20;;;;;;2265041;59;21564;-77
2022/05/21 12:30:32;;;;;;;7.50;1.45;;;18.60;55.70;;;;;;2265428;59;21117;-76
2022/05/21 12:32:59;;;;;;;4.12;1.20;;;18.60;56.60;;;;;;2316687;55;21148;-76
2022/05/21 12:35:52;;;;;;;2.72;1.27;;;18.50;56.40;;;;;;2264703;59;21085;-77
2022/05/21 12:38:30;;;;;;;4.00;1.70;;;18.40;56.40;;;;;;2265205;59;21116;-77
2022/05/21 12:41:05;;;;;;;9.35;1.48;;;18.40;56.50;;;;;;2266061;59;21140;-76
2022/05/21 12:43:43;;;;;;;10.02;1.90;;;18.30;56.20;;;;;;2264868;55;21081;-77
2022/05/21 12:46:24;;;;;;;9.82;1.65;;;18.20;56.90;;;;;;2264711;59;21045;-77
2022/05/21 12:48:52;;;;;;;6.70;1.58;;;18.30;57.10;;;;;;2264836;59;21576;-77
2022/05/21 12:54:07;;;;;;;3.05;1.08;;;18.50;57.00;;;;;;2327263;57;22669;-77
2022/05/21 12:56:37;;;;;;;9.75;1.80;;;18.50;56.90;;;;;;2358258;53;21101;-78
2022/05/21 12:59:08;;;;;;;6.82;1.27;;;18.40;56.60;;;;;;2373732;56;21043;-76
2022/05/21 13:01:43;;;;;;;6.78;1.90;;;18.30;56.60;;;;;;2378761;52;21039;-77
2022/05/21 13:04:23;;;;;;;6.07;2.17;;;18.30;56.90;;;;;;2374803;56;21395;-78
2022/05/21 13:06:56;;;;;;;5.60;1.75;;;18.10;57.10;;;;;;2373488;56;21070;-77
2022/05/21 13:09:24;;;;;;;6.37;1.50;;;18.10;57.60;;;;;;2374250;56;21113;-77
2022/05/21 13:11:51;;;;;;;6.20;1.40;;;18.20;58.00;;;;;;2382416;52;21073;-78
2022/05/21 13:14:27;;;;;;;8.88;1.60;;;18.30;58.00;;;;;;2438387;52;21066;-76
2022/05/21 13:16:58;;;;;;;9.45;1.48;;;18.30;57.70;;;;;;2373278;56;21051;-76
2022/05/21 13:20:10;;;;;;;6.62;1.50;;;18.40;57.50;;;;;;2374946;56;21054;-77
2022/05/21 13:23:31;;;;;;;6.65;1.23;;;18.20;57.10;;;;;;2373571;56;21129;-78
2022/05/21 13:25:58;;;;;;;7.70;1.50;;;18.10;56.30;;;;;;2340112;56;21034;-78
2022/05/21 13:28:26;;;;;;;9.20;1.60;;;18.00;56.40;;;;;;2384067;52;21035;-78
2022/05/21 13:30:54;;;;;;;11.93;1.40;;;18.00;56.90;;;;;;2374248;56;21062;-77
2022/05/21 13:33:30;;;;;;;5.93;1.15;;;18.00;57.10;;;;;;2375164;56;21134;-77
2022/05/21 13:36:01;;;;;;;8.57;1.60;;;18.10;57.20;;;;;;2373433;56;21110;-77
2022/05/21 13:38:33;;;;;;;5.40;1.25;;;18.20;57.30;;;;;;2375143;56;21372;-76
2022/05/21 13:41:05;;;;;;;11.68;2.72;;;18.20;56.80;;;;;;2386036;52;21071;-76
2022/05/21 13:43:37;;;;;;;7.43;1.55;;;18.30;56.60;;;;;;2375125;56;21105;-76
2022/05/21 13:46:07;;;;;;;5.15;1.70;;;18.30;56.70;;;;;;2373705;56;21312;-76
2022/05/21 13:48:40;;;;;;;9.30;1.67;;;18.30;56.90;;;;;;2374031;56;21593;-76
2022/05/21 13:51:12;;;;;;;6.18;1.60;;;18.30;56.20;;;;;;2407363;52;21161;-79
2022/05/21 13:53:40;;;;;;;4.65;1.23;;;18.40;56.40;;;;;;2375290;56;21042;-80
2022/05/21 13:56:29;;;;;;;9.25;1.62;;;18.40;57.20;;;;;;2374603;56;21137;-79
2022/05/21 13:59:16;;;;;;;6.50;1.95;;;18.50;57.30;;;;;;2375749;56;21051;-79
2022/05/21 14:01:48;;;;;;;8.52;2.15;;;18.50;56.40;;;;;;2519506;52;21126;-76
2022/05/21 14:04:31;;;;;;;8.43;1.90;;;18.50;57.50;;;;;;2374674;56;21067;-76